sensor_id;sensor_type;location;lat;lon;timestamp;pressure;altitude;pressure_sealevel;temperature;humidity
45467;BME280;31212;49.734;8.490;2023-04-30T00:02:23;100884.28;;;11.13;80.57
45467;BME280;31212;49.734;8.490;2023-04-30T00:04:50;100894.72;;;11.19;80.18
45467;BME280;31212;49.734;8.490;2023-04-30T00:07:16;100887.75;;;11.15;79.58
45467;BME280;31212;49.734;8.490;2023-04-30T00:09:43;100887.78;;;11.16;80.53
45467;BME280;31212;49.734;8.490;2023-04-30T00:12:09;100895.59;;;11.18;79.90
45467;BME280;31212;49.734;8.490;2023-04-30T00:14:36;100895.53;;;11.13;80.33
45467;BME280;31212;49.734;8.490;2023-04-30T00:17:02;100892.00;;;11.06;79.66
45467;BME280;31212;49.734;8.490;2023-04-30T00:19:30;100911.13;;;11.11;80.71
45467;BME280;31212;49.734;8.490;2023-04-30T00:21:57;100898.97;;;11.09;80.18
45467;BME280;31212;49.734;8.490;2023-04-30T00:24:25;100894.59;;;11.05;80.71
45467;BME280;31212;49.734;8.490;2023-04-30T00:26:52;100904.13;;;11.03;81.08
45467;BME280;31212;49.734;8.490;2023-04-30T00:29:18;100908.44;;;11.04;80.88
45467;BME280;31212;49.734;8.490;2023-04-30T00:31:45;100919.63;;;10.95;80.11
45467;BME280;31212;49.734;8.490;2023-04-30T00:34:11;100923.09;;;10.96;80.79
45467;BME280;31212;49.734;8.490;2023-04-30T00:36:39;100914.47;;;10.98;80.46
45467;BME280;31212;49.734;8.490;2023-04-30T00:39:06;100914.44;;;10.97;80.06
45467;BME280;31212;49.734;8.490;2023-04-30T00:41:34;100913.59;;;10.96;81.20
45467;BME280;31212;49.734;8.490;2023-04-30T00:44:00;100907.50;;;10.96;80.59
45467;BME280;31212;49.734;8.490;2023-04-30T00:46:27;100911.84;;;10.97;80.45
45467;BME280;31212;49.734;8.490;2023-04-30T00:48:55;100909.25;;;10.95;80.58
45467;BME280;31212;49.734;8.490;2023-04-30T00:51:21;100891.81;;;10.86;79.98
45467;BME280;31212;49.734;8.490;2023-04-30T00:53:49;100915.28;;;10.94;80.12
45467;BME280;31212;49.734;8.490;2023-04-30T00:56:16;100897.13;;;10.96;80.64
45467;BME280;31212;49.734;8.490;2023-04-30T00:58:44;100894.47;;;10.89;80.21
45467;BME280;31212;49.734;8.490;2023-04-30T01:01:11;100899.59;;;10.83;80.17
45467;BME280;31212;49.734;8.490;2023-04-30T01:03:38;100900.44;;;10.82;80.71
45467;BME280;31212;49.734;8.490;2023-04-30T01:06:04;100910.81;;;10.81;81.22
45467;BME280;31212;49.734;8.490;2023-04-30T01:08:32;100915.13;;;10.77;81.32
45467;BME280;31212;49.734;8.490;2023-04-30T01:11:09;100915.09;;;10.74;81.16
45467;BME280;31212;49.734;8.490;2023-04-30T01:13:43;100932.25;;;10.59;81.93
45467;BME280;31212;49.734;8.490;2023-04-30T01:16:16;100935.69;;;10.58;82.28
45467;BME280;31212;49.734;8.490;2023-04-30T01:18:48;100941.78;;;10.62;82.05
45467;BME280;31212;49.734;8.490;2023-04-30T01:21:17;100942.59;;;10.56;82.74
45467;BME280;31212;49.734;8.490;2023-04-30T01:24:05;100946.09;;;10.58;82.47
45467;BME280;31212;49.734;8.490;2023-04-30T01:26:54;100952.09;;;10.53;83.01
45467;BME280;31212;49.734;8.490;2023-04-30T01:29:27;100950.34;;;10.53;83.20
45467;BME280;31212;49.734;8.490;2023-04-30T01:31:54;100951.16;;;10.49;83.56
45467;BME280;31212;49.734;8.490;2023-04-30T01:34:20;100958.03;;;10.47;83.33
45467;BME280;31212;49.734;8.490;2023-04-30T01:36:55;100969.16;;;10.35;84.04
45467;BME280;31212;49.734;8.490;2023-04-30T01:39:38;100972.56;;;10.34;84.42
45467;BME280;31212;49.734;8.490;2023-04-30T01:42:12;100968.38;;;10.41;84.07
45467;BME280;31212;49.734;8.490;2023-04-30T01:45:01;100973.53;;;10.39;84.52
45467;BME280;31212;49.734;8.490;2023-04-30T01:47:38;100962.34;;;10.42;83.86
45467;BME280;31212;49.734;8.490;2023-04-30T01:50:16;100957.16;;;10.42;83.59
45467;BME280;31212;49.734;8.490;2023-04-30T01:52:46;100938.09;;;10.41;83.32
45467;BME280;31212;49.734;8.490;2023-04-30T01:55:20;100939.84;;;10.44;83.22
45467;BME280;31212;49.734;8.490;2023-04-30T01:57:55;100935.56;;;10.46;82.97
45467;BME280;31212;49.734;8.490;2023-04-30T02:00:24;100934.72;;;10.49;82.51
45467;BME280;31212;49.734;8.490;2023-04-30T02:02:54;100945.13;;;10.49;82.33
45467;BME280;31212;49.734;8.490;2023-04-30T02:05:20;100944.09;;;10.39;83.45
45467;BME280;31212;49.734;8.490;2023-04-30T02:07:48;100952.84;;;10.47;83.38
45467;BME280;31212;49.734;8.490;2023-04-30T02:10:17;100945.84;;;10.40;83.37
45467;BME280;31212;49.734;8.490;2023-04-30T02:12:43;100951.03;;;10.40;83.30
45467;BME280;31212;49.734;8.490;2023-04-30T02:15:10;100949.31;;;10.40;83.27
45467;BME280;31212;49.734;8.490;2023-04-30T02:17:41;100944.19;;;10.43;83.71
45467;BME280;31212;49.734;8.490;2023-04-30T02:20:08;100949.38;;;10.45;83.23
45467;BME280;31212;49.734;8.490;2023-04-30T02:22:35;100945.88;;;10.41;83.10
45467;BME280;31212;49.734;8.490;2023-04-30T02:25:02;100948.47;;;10.43;83.54
45467;BME280;31212;49.734;8.490;2023-04-30T02:27:30;100947.59;;;10.39;83.35
45467;BME280;31212;49.734;8.490;2023-04-30T02:29:57;100948.44;;;10.38;82.94
45467;BME280;31212;49.734;8.490;2023-04-30T02:32:24;100941.50;;;10.39;83.08
45467;BME280;31212;49.734;8.490;2023-04-30T02:34:52;100946.53;;;10.30;83.63
45467;BME280;31212;49.734;8.490;2023-04-30T02:37:18;100939.72;;;10.35;83.46
45467;BME280;31212;49.734;8.490;2023-04-30T02:39:45;100942.34;;;10.36;83.32
45467;BME280;31212;49.734;8.490;2023-04-30T02:42:11;100946.50;;;10.25;82.99
45467;BME280;31212;49.734;8.490;2023-04-30T02:44:38;100948.28;;;10.31;83.83
45467;BME280;31212;49.734;8.490;2023-04-30T02:47:05;100946.59;;;10.33;83.58
45467;BME280;31212;49.734;8.490;2023-04-30T02:49:32;100947.41;;;10.29;83.26
45467;BME280;31212;49.734;8.490;2023-04-30T02:51:59;100959.44;;;10.22;84.39
45467;BME280;31212;49.734;8.490;2023-04-30T02:54:26;100959.38;;;10.19;84.23
45467;BME280;31212;49.734;8.490;2023-04-30T02:56:52;100961.22;;;10.26;83.96
45467;BME280;31212;49.734;8.490;2023-04-30T02:59:19;100961.97;;;10.17;84.64
45467;BME280;31212;49.734;8.490;2023-04-30T03:01:45;100961.13;;;10.20;84.79
45467;BME280;31212;49.734;8.490;2023-04-30T03:04:12;100963.75;;;10.23;84.22
45467;BME280;31212;49.734;8.490;2023-04-30T03:06:38;100971.50;;;10.20;84.22
45467;BME280;31212;49.734;8.490;2023-04-30T03:09:06;100975.00;;;10.20;84.13
45467;BME280;31212;49.734;8.490;2023-04-30T03:11:33;100966.34;;;10.21;84.27
45467;BME280;31212;49.734;8.490;2023-04-30T03:14:02;100967.13;;;10.16;84.44
45467;BME280;31212;49.734;8.490;2023-04-30T03:16:28;100967.16;;;10.19;84.21
45467;BME280;31212;49.734;8.490;2023-04-30T03:18:55;100971.50;;;10.20;84.38
45467;BME280;31212;49.734;8.490;2023-04-30T03:21:21;100971.50;;;10.18;84.84
45467;BME280;31212;49.734;8.490;2023-04-30T03:23:48;100966.22;;;10.12;84.07
45467;BME280;31212;49.734;8.490;2023-04-30T03:26:16;100958.41;;;10.12;84.48
45467;BME280;31212;49.734;8.490;2023-04-30T03:28:42;100949.81;;;10.16;84.00
45467;BME280;31212;49.734;8.490;2023-04-30T03:31:09;100941.19;;;10.17;83.82
45467;BME280;31212;49.734;8.490;2023-04-30T03:33:35;100937.72;;;10.15;84.11
45467;BME280;31212;49.734;8.490;2023-04-30T03:36:02;100936.09;;;10.23;83.88
45467;BME280;31212;49.734;8.490;2023-04-30T03:38:29;100923.09;;;10.20;82.93
45467;BME280;31212;49.734;8.490;2023-04-30T03:40:55;100923.84;;;10.13;83.17
45467;BME280;31212;49.734;8.490;2023-04-30T03:43:23;100935.16;;;10.17;83.43
45467;BME280;31212;49.734;8.490;2023-04-30T03:45:49;100937.72;;;10.15;83.45
45467;BME280;31212;49.734;8.490;2023-04-30T03:48:16;100937.75;;;10.18;83.33
45467;BME280;31212;49.734;8.490;2023-04-30T03:50:44;100942.09;;;10.18;83.13
45467;BME280;31212;49.734;8.490;2023-04-30T03:53:11;100948.97;;;10.16;83.84
45467;BME280;31212;49.734;8.490;2023-04-30T03:55:38;100955.91;;;10.15;84.09
45467;BME280;31212;49.734;8.490;2023-04-30T03:58:05;100956.72;;;10.14;83.79
45467;BME280;31212;49.734;8.490;2023-04-30T04:00:32;100952.34;;;10.10;83.75
45467;BME280;31212;49.734;8.490;2023-04-30T04:02:59;100952.38;;;10.13;84.20
45467;BME280;31212;49.734;8.490;2023-04-30T04:05:27;100961.88;;;10.11;84.42
45467;BME280;31212;49.734;8.490;2023-04-30T04:07:54;100954.09;;;10.11;83.90
45467;BME280;31212;49.734;8.490;2023-04-30T04:10:20;100963.47;;;10.01;84.01
45467;BME280;31212;49.734;8.490;2023-04-30T04:12:47;100966.16;;;10.09;84.36
45467;BME280;31212;49.734;8.490;2023-04-30T04:15:14;100973.16;;;10.13;84.93
45467;BME280;31212;49.734;8.490;2023-04-30T04:17:41;100967.91;;;10.10;84.43
45467;BME280;31212;49.734;8.490;2023-04-30T04:20:09;100972.19;;;10.08;84.30
45467;BME280;31212;49.734;8.490;2023-04-30T04:22:37;100973.16;;;10.13;84.86
45467;BME280;31212;49.734;8.490;2023-04-30T04:25:06;100972.31;;;10.14;84.59
45467;BME280;31212;49.734;8.490;2023-04-30T04:27:33;100964.53;;;10.14;84.44
45467;BME280;31212;49.734;8.490;2023-04-30T04:30:00;100971.47;;;10.17;84.52
45467;BME280;31212;49.734;8.490;2023-04-30T04:32:27;100968.03;;;10.18;84.46
45467;BME280;31212;49.734;8.490;2023-04-30T04:34:56;100967.13;;;10.14;83.73
45467;BME280;31212;49.734;8.490;2023-04-30T04:37:23;100968.09;;;10.22;83.87
45467;BME280;31212;49.734;8.490;2023-04-30T04:39:50;100967.13;;;10.16;84.23
45467;BME280;31212;49.734;8.490;2023-04-30T04:42:16;100970.66;;;10.19;84.30
45467;BME280;31212;49.734;8.490;2023-04-30T04:44:44;100969.81;;;10.22;83.49
45467;BME280;31212;49.734;8.490;2023-04-30T04:47:11;100963.75;;;10.21;83.44
45467;BME280;31212;49.734;8.490;2023-04-30T04:49:37;100967.28;;;10.26;83.53
45467;BME280;31212;49.734;8.490;2023-04-30T04:52:05;100966.16;;;10.07;83.83
45467;BME280;31212;49.734;8.490;2023-04-30T04:54:32;100984.34;;;10.10;83.91
45467;BME280;31212;49.734;8.490;2023-04-30T04:56:58;100985.28;;;10.16;83.92
45467;BME280;31212;49.734;8.490;2023-04-30T04:59:25;100981.03;;;10.19;84.09
45467;BME280;31212;49.734;8.490;2023-04-30T05:01:51;100978.31;;;10.12;84.26
45467;BME280;31212;49.734;8.490;2023-04-30T05:04:18;100975.84;;;10.19;83.92
45467;BME280;31212;49.734;8.490;2023-04-30T05:06:44;100966.34;;;10.23;84.05
45467;BME280;31212;49.734;8.490;2023-04-30T05:09:12;100965.50;;;10.24;83.44
45467;BME280;31212;49.734;8.490;2023-04-30T05:11:39;100967.22;;;10.20;84.13
45467;BME280;31212;49.734;8.490;2023-04-30T05:14:06;100959.44;;;10.20;83.63
45467;BME280;31212;49.734;8.490;2023-04-30T05:16:32;100970.69;;;10.24;84.15
45467;BME280;31212;49.734;8.490;2023-04-30T05:18:58;100964.84;;;10.37;83.65
45467;BME280;31212;49.734;8.490;2023-04-30T05:21:25;100960.44;;;10.32;83.47
45467;BME280;31212;49.734;8.490;2023-04-30T05:23:54;100968.28;;;10.36;83.60
45467;BME280;31212;49.734;8.490;2023-04-30T05:26:22;100980.47;;;10.40;83.47
45467;BME280;31212;49.734;8.490;2023-04-30T05:28:48;100969.16;;;10.35;82.98
45467;BME280;31212;49.734;8.490;2023-04-30T05:31:16;100967.75;;;10.62;83.89
45467;BME280;31212;49.734;8.490;2023-04-30T05:33:43;100958.09;;;10.49;83.27
45467;BME280;31212;49.734;8.490;2023-04-30T05:36:09;100952.09;;;10.54;82.94
45467;BME280;31212;49.734;8.490;2023-04-30T05:38:36;100949.69;;;10.71;82.35
45467;BME280;31212;49.734;8.490;2023-04-30T05:41:03;100952.34;;;10.76;82.31
45467;BME280;31212;49.734;8.490;2023-04-30T05:43:30;100931.69;;;10.90;82.25
45467;BME280;31212;49.734;8.490;2023-04-30T05:45:57;100918.94;;;11.13;81.06
45467;BME280;31212;49.734;8.490;2023-04-30T05:48:24;100915.38;;;11.02;81.19
45467;BME280;31212;49.734;8.490;2023-04-30T05:50:50;100910.28;;;11.17;81.17
45467;BME280;31212;49.734;8.490;2023-04-30T05:53:18;100898.09;;;11.05;80.72
45467;BME280;31212;49.734;8.490;2023-04-30T05:55:44;100897.31;;;11.17;80.87
45467;BME280;31212;49.734;8.490;2023-04-30T05:58:11;100881.00;;;11.34;79.51
45467;BME280;31212;49.734;8.490;2023-04-30T06:00:39;100885.44;;;11.50;80.14
45467;BME280;31212;49.734;8.490;2023-04-30T06:03:05;100857.88;;;11.78;79.24
45467;BME280;31212;49.734;8.490;2023-04-30T06:05:32;100850.97;;;11.84;78.14
45467;BME280;31212;49.734;8.490;2023-04-30T06:07:58;100823.16;;;11.75;78.09
45467;BME280;31212;49.734;8.490;2023-04-30T06:10:25;100810.31;;;12.01;77.12
45467;BME280;31212;49.734;8.490;2023-04-30T06:12:51;100792.00;;;11.89;76.50
45467;BME280;31212;49.734;8.490;2023-04-30T06:15:18;100793.84;;;12.07;76.98
45467;BME280;31212;49.734;8.490;2023-04-30T06:17:45;100778.09;;;11.79;76.21
45467;BME280;31212;49.734;8.490;2023-04-30T06:20:12;100779.94;;;12.05;76.27
45467;BME280;31212;49.734;8.490;2023-04-30T06:22:39;100772.19;;;12.19;75.99
45467;BME280;31212;49.734;8.490;2023-04-30T06:25:07;100770.41;;;11.98;75.51
45467;BME280;31212;49.734;8.490;2023-04-30T06:27:33;100772.00;;;11.68;75.63
45467;BME280;31212;49.734;8.490;2023-04-30T06:30:00;100771.25;;;12.00;75.36
45467;BME280;31212;49.734;8.490;2023-04-30T06:32:27;100729.56;;;11.89;75.08
45467;BME280;31212;49.734;8.490;2023-04-30T06:34:54;100756.44;;;11.80;75.75
45467;BME280;31212;49.734;8.490;2023-04-30T06:37:21;100776.53;;;12.14;75.60
45467;BME280;31212;49.734;8.490;2023-04-30T06:39:48;100760.03;;;12.21;74.89
45467;BME280;31212;49.734;8.490;2023-04-30T06:42:14;100733.16;;;12.33;73.86
45467;BME280;31212;49.734;8.490;2023-04-30T06:44:41;100707.13;;;12.47;73.19
45467;BME280;31212;49.734;8.490;2023-04-30T06:47:08;100670.69;;;12.53;72.82
45467;BME280;31212;49.734;8.490;2023-04-30T06:49:34;100655.03;;;12.60;71.91
45467;BME280;31212;49.734;8.490;2023-04-30T06:52:02;100635.00;;;12.86;71.67
45467;BME280;31212;49.734;8.490;2023-04-30T06:54:29;100599.31;;;13.12;70.49
45467;BME280;31212;49.734;8.490;2023-04-30T06:56:55;100600.13;;;13.22;70.41
45467;BME280;31212;49.734;8.490;2023-04-30T06:59:22;100597.56;;;13.13;70.13
45467;BME280;31212;49.734;8.490;2023-04-30T07:01:48;100563.88;;;12.73;69.73
45467;BME280;31212;49.734;8.490;2023-04-30T07:04:15;100608.97;;;12.84;70.29
45467;BME280;31212;49.734;8.490;2023-04-30T07:06:41;100594.97;;;13.15;69.83
45467;BME280;31212;49.734;8.490;2023-04-30T07:09:09;100533.16;;;13.38;68.35
45467;BME280;31212;49.734;8.490;2023-04-30T07:11:37;100503.59;;;13.39;67.86
45467;BME280;31212;49.734;8.490;2023-04-30T07:14:04;100440.94;;;13.50;66.55
45467;BME280;31212;49.734;8.490;2023-04-30T07:16:31;100448.63;;;13.67;66.04
45467;BME280;31212;49.734;8.490;2023-04-30T07:18:57;100459.31;;;13.36;66.62
45467;BME280;31212;49.734;8.490;2023-04-30T07:21:24;100488.53;;;13.74;66.75
45467;BME280;31212;49.734;8.490;2023-04-30T07:23:52;100466.00;;;14.52;65.74
45467;BME280;31212;49.734;8.490;2023-04-30T07:26:19;100389.31;;;15.16;63.54
45467;BME280;31212;49.734;8.490;2023-04-30T07:28:49;100297.13;;;17.12;60.08
45467;BME280;31212;49.734;8.490;2023-04-30T07:31:15;100177.63;;;16.31;58.31
45467;BME280;31212;49.734;8.490;2023-04-30T07:33:43;100066.69;;;16.34;56.63
45467;BME280;31212;49.734;8.490;2023-04-30T07:36:10;100099.16;;;17.54;55.40
45467;BME280;31212;49.734;8.490;2023-04-30T07:38:36;100098.06;;;18.69;54.02
45467;BME280;31212;49.734;8.490;2023-04-30T07:41:03;100067.66;;;19.32;52.64
45467;BME280;31212;49.734;8.490;2023-04-30T07:43:31;99907.59;;;20.25;49.42
45467;BME280;31212;49.734;8.490;2023-04-30T07:45:58;99834.84;;;18.30;49.81
45467;BME280;31212;49.734;8.490;2023-04-30T07:48:24;99939.22;;;18.98;50.08
45467;BME280;31212;49.734;8.490;2023-04-30T07:50:51;99891.06;;;19.18;49.08
45467;BME280;31212;49.734;8.490;2023-04-30T07:53:17;99913.72;;;19.43;48.91
45467;BME280;31212;49.734;8.490;2023-04-30T07:55:44;99873.16;;;18.60;49.18
45467;BME280;31212;49.734;8.490;2023-04-30T07:58:10;99901.50;;;18.52;49.31
45467;BME280;31212;49.734;8.490;2023-04-30T08:00:38;99928.69;;;19.42;48.72
45467;BME280;31212;49.734;8.490;2023-04-30T08:03:05;99935.22;;;19.32;48.70
45467;BME280;31212;49.734;8.490;2023-04-30T08:05:31;99936.81;;;19.79;48.11
45467;BME280;31212;49.734;8.490;2023-04-30T08:07:58;99901.88;;;20.74;46.55
45467;BME280;31212;49.734;8.490;2023-04-30T08:10:25;99778.66;;;19.61;46.22
45467;BME280;31212;49.734;8.490;2023-04-30T08:12:51;99843.59;;;19.62;46.86
45467;BME280;31212;49.734;8.490;2023-04-30T08:15:18;99852.97;;;19.47;47.09
45467;BME280;31212;49.734;8.490;2023-04-30T08:17:47;99921.22;;;19.31;47.85
45467;BME280;31212;49.734;8.490;2023-04-30T08:20:14;99872.09;;;19.73;46.76
45467;BME280;31212;49.734;8.490;2023-04-30T08:22:41;99832.41;;;20.54;45.38
45467;BME280;31212;49.734;8.490;2023-04-30T08:25:09;99848.13;;;20.19;45.67
45467;BME280;31212;49.734;8.490;2023-04-30T08:27:36;99830.88;;;20.31;45.49
45467;BME280;31212;49.734;8.490;2023-04-30T08:30:03;99791.25;;;21.41;44.01
45467;BME280;31212;49.734;8.490;2023-04-30T08:32:29;99763.56;;;20.97;43.87
45467;BME280;31212;49.734;8.490;2023-04-30T08:34:57;99790.31;;;21.42;43.80
45467;BME280;31212;49.734;8.490;2023-04-30T08:37:23;99700.19;;;21.14;42.79
45467;BME280;31212;49.734;8.490;2023-04-30T08:39:50;99686.22;;;22.58;40.78
45467;BME280;31212;49.734;8.490;2023-04-30T08:42:18;99652.91;;;21.27;41.37
45467;BME280;31212;49.734;8.490;2023-04-30T08:44:46;99771.66;;;22.28;41.73
45467;BME280;31212;49.734;8.490;2023-04-30T08:47:13;99757.63;;;23.34;40.30
45467;BME280;31212;49.734;8.490;2023-04-30T08:49:40;99559.00;;;22.91;38.19
45467;BME280;31212;49.734;8.490;2023-04-30T08:52:08;99661.59;;;22.57;39.49
45467;BME280;31212;49.734;8.490;2023-04-30T08:54:35;99660.34;;;23.65;38.36
45467;BME280;31212;49.734;8.490;2023-04-30T08:57:02;99594.38;;;25.20;35.94
45467;BME280;31212;49.734;8.490;2023-04-30T08:59:29;99693.28;;;24.85;37.65
45467;BME280;31212;49.734;8.490;2023-04-30T09:01:56;99542.47;;;23.16;37.23
45467;BME280;31212;49.734;8.490;2023-04-30T09:04:22;99706.31;;;24.35;37.85
45467;BME280;31212;49.734;8.490;2023-04-30T09:06:51;99684.06;;;22.64;39.08
45467;BME280;31212;49.734;8.490;2023-04-30T09:09:19;99640.28;;;21.66;39.27
45467;BME280;31212;49.734;8.490;2023-04-30T09:11:46;99677.22;;;21.50;39.82
45467;BME280;31212;49.734;8.490;2023-04-30T09:14:12;99790.31;;;23.19;39.60
45467;BME280;31212;49.734;8.490;2023-04-30T09:16:46;99676.34;;;21.83;39.52
45467;BME280;31212;49.734;8.490;2023-04-30T09:19:23;99872.94;;;23.85;39.79
45467;BME280;31212;49.734;8.490;2023-04-30T09:21:50;99571.78;;;24.50;35.55
45467;BME280;31212;49.734;8.490;2023-04-30T09:24:17;99529.78;;;23.22;36.07
45467;BME280;31212;49.734;8.490;2023-04-30T09:26:45;99638.25;;;25.26;35.64
45467;BME280;31212;49.734;8.490;2023-04-30T09:29:13;99575.84;;;26.64;33.65
45467;BME280;31212;49.734;8.490;2023-04-30T09:31:41;99328.69;;;25.68;32.19
45467;BME280;31212;49.734;8.490;2023-04-30T09:34:08;99457.38;;;23.35;35.03
45467;BME280;31212;49.734;8.490;2023-04-30T09:36:35;99439.41;;;23.41;34.67
45467;BME280;31212;49.734;8.490;2023-04-30T09:39:06;99323.28;;;23.86;32.83
45467;BME280;31212;49.734;8.490;2023-04-30T09:41:34;99346.53;;;23.29;33.22
45467;BME280;31212;49.734;8.490;2023-04-30T09:44:01;99404.00;;;25.32;31.74
45467;BME280;31212;49.734;8.490;2023-04-30T09:46:30;99341.97;;;25.09;31.91
45467;BME280;31212;49.734;8.490;2023-04-30T09:48:58;99484.69;;;26.04;32.18
45467;BME280;31212;49.734;8.490;2023-04-30T09:51:24;99587.75;;;25.76;33.26
45467;BME280;31212;49.734;8.490;2023-04-30T09:53:52;99622.47;;;25.61;33.94
45467;BME280;31212;49.734;8.490;2023-04-30T09:56:20;99477.50;;;26.74;31.65
45467;BME280;31212;49.734;8.490;2023-04-30T09:58:49;99439.00;;;24.13;33.79
45467;BME280;31212;49.734;8.490;2023-04-30T10:01:18;99391.91;;;22.83;34.27
45467;BME280;31212;49.734;8.490;2023-04-30T10:03:46;99601.72;;;22.71;36.19
45467;BME280;31212;49.734;8.490;2023-04-30T10:06:13;99632.28;;;23.90;35.56
45467;BME280;31212;49.734;8.490;2023-04-30T10:08:43;99529.22;;;24.51;33.44
45467;BME280;31212;49.734;8.490;2023-04-30T10:11:12;99449.97;;;25.21;31.88
45467;BME280;31212;49.734;8.490;2023-04-30T10:13:45;99370.25;;;25.34;31.73
45467;BME280;31212;49.734;8.490;2023-04-30T10:16:24;99415.13;;;24.51;32.69
45467;BME280;31212;49.734;8.490;2023-04-30T10:18:52;99361.81;;;23.26;33.39
45467;BME280;31212;49.734;8.490;2023-04-30T10:21:21;99336.00;;;23.68;32.46
45467;BME280;31212;49.734;8.490;2023-04-30T10:23:48;99420.41;;;23.34;33.56
45467;BME280;31212;49.734;8.490;2023-04-30T10:26:16;99371.53;;;24.17;32.23
45467;BME280;31212;49.734;8.490;2023-04-30T10:28:43;99437.81;;;26.25;30.95
45467;BME280;31212;49.734;8.490;2023-04-30T10:31:11;99350.22;;;25.17;30.97
45467;BME280;31212;49.734;8.490;2023-04-30T10:33:48;99394.69;;;25.50;30.85
45467;BME280;31212;49.734;8.490;2023-04-30T10:36:53;99370.72;;;26.65;29.70
45467;BME280;31212;49.734;8.490;2023-04-30T10:39:24;99389.78;;;25.09;31.19
45467;BME280;31212;49.734;8.490;2023-04-30T10:42:00;99334.94;;;25.79;29.97
45467;BME280;31212;49.734;8.490;2023-04-30T10:44:31;99223.78;;;25.50;29.25
45467;BME280;31212;49.734;8.490;2023-04-30T10:47:01;99284.75;;;24.69;30.75
45467;BME280;31212;49.734;8.490;2023-04-30T10:49:29;99262.16;;;23.63;31.53
45467;BME280;31212;49.734;8.490;2023-04-30T10:51:58;99287.03;;;24.12;30.85
45467;BME280;31212;49.734;8.490;2023-04-30T10:54:26;99294.16;;;23.99;31.14
45467;BME280;31212;49.734;8.490;2023-04-30T10:56:54;99253.66;;;23.71;31.14
45467;BME280;31212;49.734;8.490;2023-04-30T10:59:34;99390.97;;;23.92;31.97
45467;BME280;31212;49.734;8.490;2023-04-30T11:02:01;99259.53;;;22.70;31.93
45467;BME280;31212;49.734;8.490;2023-04-30T11:04:29;99265.97;;;22.66;32.22
45467;BME280;31212;49.734;8.490;2023-04-30T11:07:01;99347.88;;;22.26;33.26
45467;BME280;31212;49.734;8.490;2023-04-30T11:09:37;99224.00;;;22.05;32.07
45467;BME280;31212;49.734;8.490;2023-04-30T11:12:10;99238.38;;;22.43;31.69
45467;BME280;31212;49.734;8.490;2023-04-30T11:14:40;99277.06;;;23.77;30.45
45467;BME280;31212;49.734;8.490;2023-04-30T11:17:08;99234.94;;;24.11;30.25
45467;BME280;31212;49.734;8.490;2023-04-30T11:19:41;99227.94;;;22.94;31.26
45467;BME280;31212;49.734;8.490;2023-04-30T11:22:19;99266.84;;;22.39;32.00
45467;BME280;31212;49.734;8.490;2023-04-30T11:24:54;99285.00;;;22.85;31.71
45467;BME280;31212;49.734;8.490;2023-04-30T11:27:28;99141.16;;;23.88;28.73
45467;BME280;31212;49.734;8.490;2023-04-30T11:29:56;99388.84;;;23.44;32.49
45467;BME280;31212;49.734;8.490;2023-04-30T11:32:24;99328.44;;;22.68;32.57
45467;BME280;31212;49.734;8.490;2023-04-30T11:34:53;99419.72;;;22.47;33.81
45467;BME280;31212;49.734;8.490;2023-04-30T11:37:30;99415.25;;;24.24;32.05
45467;BME280;31212;49.734;8.490;2023-04-30T11:39:59;99428.28;;;24.14;32.13
45467;BME280;31212;49.734;8.490;2023-04-30T11:42:26;99470.41;;;24.71;32.24
45467;BME280;31212;49.734;8.490;2023-04-30T11:44:54;99313.00;;;24.57;30.43
45467;BME280;31212;49.734;8.490;2023-04-30T11:47:37;99294.91;;;23.62;31.78
45467;BME280;31212;49.734;8.490;2023-04-30T11:50:06;99299.28;;;21.40;33.98
45467;BME280;31212;49.734;8.490;2023-04-30T11:52:33;99401.00;;;22.21;34.13
45467;BME280;31212;49.734;8.490;2023-04-30T11:54:59;99502.78;;;23.29;34.64
45467;BME280;31212;49.734;8.490;2023-04-30T11:57:33;99336.91;;;22.46;33.21
45467;BME280;31212;49.734;8.490;2023-04-30T12:00:07;99368.72;;;23.41;32.49
45467;BME280;31212;49.734;8.490;2023-04-30T12:02:35;99369.75;;;23.26;32.57
45467;BME280;31212;49.734;8.490;2023-04-30T12:05:01;99225.81;;;22.05;32.17
45467;BME280;31212;49.734;8.490;2023-04-30T12:07:30;99330.72;;;22.60;32.77
45467;BME280;31212;49.734;8.490;2023-04-30T12:09:57;99330.13;;;22.42;33.11
45467;BME280;31212;49.734;8.490;2023-04-30T12:12:27;99207.16;;;23.54;30.33
45467;BME280;31212;49.734;8.490;2023-04-30T12:14:54;99107.09;;;23.58;28.88
45467;BME280;31212;49.734;8.490;2023-04-30T12:17:31;99267.53;;;23.75;30.55
45467;BME280;31212;49.734;8.490;2023-04-30T12:19:58;99377.75;;;22.97;32.98
45467;BME280;31212;49.734;8.490;2023-04-30T12:22:24;99409.84;;;23.47;32.60
45467;BME280;31212;49.734;8.490;2023-04-30T12:24:53;99242.28;;;23.82;30.32
45467;BME280;31212;49.734;8.490;2023-04-30T12:27:20;99178.97;;;23.66;29.94
45467;BME280;31212;49.734;8.490;2023-04-30T12:29:47;99139.22;;;23.53;29.45
45467;BME280;31212;49.734;8.490;2023-04-30T12:32:16;99143.97;;;22.58;30.68
45467;BME280;31212;49.734;8.490;2023-04-30T12:34:43;99237.59;;;22.82;31.36
45467;BME280;31212;49.734;8.490;2023-04-30T12:37:13;99256.91;;;22.43;31.83
45467;BME280;31212;49.734;8.490;2023-04-30T12:39:40;99287.22;;;22.51;32.08
45467;BME280;31212;49.734;8.490;2023-04-30T12:42:08;99396.50;;;22.23;34.05
45467;BME280;31212;49.734;8.490;2023-04-30T12:44:41;99356.19;;;21.91;33.83
45467;BME280;31212;49.734;8.490;2023-04-30T12:47:08;99377.50;;;22.02;33.82
45467;BME280;31212;49.734;8.490;2023-04-30T12:49:35;99302.47;;;21.00;34.07
45467;BME280;31212;49.734;8.490;2023-04-30T12:52:03;99288.81;;;20.78;34.39
45467;BME280;31212;49.734;8.490;2023-04-30T12:54:32;99377.88;;;21.05;35.24
45467;BME280;31212;49.734;8.490;2023-04-30T12:57:00;99252.47;;;20.67;33.65
45467;BME280;31212;49.734;8.490;2023-04-30T12:59:29;99337.59;;;21.47;33.91
45467;BME280;31212;49.734;8.490;2023-04-30T13:02:04;99299.72;;;21.63;33.39